sensor_id;sensor_type;location;lat;lon;timestamp;P1;durP1;ratioP1;P2;durP2;ratioP2
13999;SDS011;7075;53.574;10.054;2022-12-07T00:01:11;282.67;;;268.45;;
13999;SDS011;7075;53.574;10.054;2022-12-07T00:03:39;293.63;;;279.15;;
13999;SDS011;7075;53.574;10.054;2022-12-07T00:06:06;299.45;;;284.42;;
13999;SDS011;7075;53.574;10.054;2022-12-07T00:08:33;288.60;;;274.43;;
13999;SDS011;7075;53.574;10.054;2022-12-07T00:11:01;281.42;;;267.23;;
13999;SDS011;7075;53.574;10.054;2022-12-07T00:13:28;292.60;;;278.08;;
13999;SDS011;7075;53.574;10.054;2022-12-07T00:15:54;298.50;;;283.63;;
13999;SDS011;7075;53.574;10.054;2022-12-07T00:18:20;296.17;;;281.27;;
13999;SDS011;7075;53.574;10.054;2022-12-07T00:20:45;294.92;;;280.15;;
13999;SDS011;7075;53.574;10.054;2022-12-07T00:23:11;287.17;;;272.93;;
13999;SDS011;7075;53.574;10.054;2022-12-07T00:25:36;281.20;;;267.03;;
13999;SDS011;7075;53.574;10.054;2022-12-07T00:28:02;279.80;;;265.90;;
13999;SDS011;7075;53.574;10.054;2022-12-07T00:30:28;291.55;;;276.95;;
13999;SDS011;7075;53.574;10.054;2022-12-07T00:32:54;281.85;;;267.80;;
13999;SDS011;7075;53.574;10.054;2022-12-07T00:35:19;250.18;;;237.68;;
13999;SDS011;7075;53.574;10.054;2022-12-07T00:37:45;286.92;;;272.83;;
13999;SDS011;7075;53.574;10.054;2022-12-07T00:40:11;290.43;;;275.93;;
13999;SDS011;7075;53.574;10.054;2022-12-07T00:42:37;300.30;;;285.55;;
13999;SDS011;7075;53.574;10.054;2022-12-07T00:45:02;294.10;;;279.77;;
13999;SDS011;7075;53.574;10.054;2022-12-07T00:47:28;297.43;;;282.63;;
13999;SDS011;7075;53.574;10.054;2022-12-07T00:49:54;286.77;;;272.63;;
13999;SDS011;7075;53.574;10.054;2022-12-07T00:52:19;263.37;;;250.17;;
13999;SDS011;7075;53.574;10.054;2022-12-07T00:54:45;279.95;;;265.95;;
13999;SDS011;7075;53.574;10.054;2022-12-07T00:57:11;278.33;;;264.88;;
13999;SDS011;7075;53.574;10.054;2022-12-07T00:59:36;273.10;;;259.58;;
13999;SDS011;7075;53.574;10.054;2022-12-07T01:02:02;275.50;;;261.97;;
13999;SDS011;7075;53.574;10.054;2022-12-07T01:04:27;271.97;;;258.63;;
13999;SDS011;7075;53.574;10.054;2022-12-07T01:06:54;270.13;;;256.77;;
13999;SDS011;7075;53.574;10.054;2022-12-07T01:09:20;283.30;;;269.45;;
13999;SDS011;7075;53.574;10.054;2022-12-07T01:11:45;258.25;;;245.38;;
13999;SDS011;7075;53.574;10.054;2022-12-07T01:14:11;285.17;;;270.87;;
13999;SDS011;7075;53.574;10.054;2022-12-07T01:16:38;267.80;;;254.38;;
13999;SDS011;7075;53.574;10.054;2022-12-07T01:19:04;271.92;;;258.35;;
13999;SDS011;7075;53.574;10.054;2022-12-07T01:21:31;287.93;;;273.83;;
13999;SDS011;7075;53.574;10.054;2022-12-07T01:24:00;282.10;;;268.35;;
13999;SDS011;7075;53.574;10.054;2022-12-07T01:26:26;283.38;;;269.52;;
13999;SDS011;7075;53.574;10.054;2022-12-07T01:28:52;275.60;;;262.13;;
13999;SDS011;7075;53.574;10.054;2022-12-07T01:31:20;272.40;;;259.20;;
13999;SDS011;7075;53.574;10.054;2022-12-07T01:33:49;288.92;;;274.98;;
13999;SDS011;7075;53.574;10.054;2022-12-07T01:36:24;280.05;;;266.27;;
13999;SDS011;7075;53.574;10.054;2022-12-07T01:38:53;282.25;;;268.35;;
13999;SDS011;7075;53.574;10.054;2022-12-07T01:41:26;305.10;;;290.25;;
13999;SDS011;7075;53.574;10.054;2022-12-07T01:44:13;287.60;;;273.63;;
13999;SDS011;7075;53.574;10.054;2022-12-07T01:46:39;269.80;;;256.73;;
13999;SDS011;7075;53.574;10.054;2022-12-07T01:49:07;261.02;;;248.30;;
13999;SDS011;7075;53.574;10.054;2022-12-07T01:51:36;269.10;;;255.68;;
13999;SDS011;7075;53.574;10.054;2022-12-07T01:54:05;277.10;;;263.35;;
13999;SDS011;7075;53.574;10.054;2022-12-07T01:56:31;258.98;;;246.30;;
13999;SDS011;7075;53.574;10.054;2022-12-07T01:58:58;278.73;;;264.90;;
13999;SDS011;7075;53.574;10.054;2022-12-07T02:01:25;281.60;;;267.95;;
13999;SDS011;7075;53.574;10.054;2022-12-07T02:03:51;269.55;;;256.48;;
13999;SDS011;7075;53.574;10.054;2022-12-07T02:06:19;272.80;;;259.30;;
13999;SDS011;7075;53.574;10.054;2022-12-07T02:08:48;277.63;;;263.85;;
13999;SDS011;7075;53.574;10.054;2022-12-07T02:11:14;272.07;;;258.93;;
13999;SDS011;7075;53.574;10.054;2022-12-07T02:13:41;284.25;;;270.38;;
13999;SDS011;7075;53.574;10.054;2022-12-07T02:27:28;296.10;;;281.55;;
13999;SDS011;7075;53.574;10.054;2022-12-07T02:30:08;304.00;;;289.35;;
13999;SDS011;7075;53.574;10.054;2022-12-07T02:35:21;300.00;;;285.63;;
13999;SDS011;7075;53.574;10.054;2022-12-07T02:43:42;279.45;;;265.80;;
13999;SDS011;7075;53.574;10.054;2022-12-07T02:46:11;281.92;;;268.30;;
13999;SDS011;7075;53.574;10.054;2022-12-07T02:48:42;292.20;;;277.90;;
13999;SDS011;7075;53.574;10.054;2022-12-07T02:51:09;278.33;;;264.95;;
13999;SDS011;7075;53.574;10.054;2022-12-07T02:53:36;280.55;;;267.00;;
13999;SDS011;7075;53.574;10.054;2022-12-07T02:56:09;285.58;;;272.00;;
13999;SDS011;7075;53.574;10.054;2022-12-07T03:04:13;224.07;;;213.38;;
13999;SDS011;7075;53.574;10.054;2022-12-07T03:06:56;255.00;;;243.07;;
13999;SDS011;7075;53.574;10.054;2022-12-07T03:09:32;246.88;;;235.13;;
13999;SDS011;7075;53.574;10.054;2022-12-07T03:12:21;241.77;;;230.18;;
13999;SDS011;7075;53.574;10.054;2022-12-07T03:15:02;224.73;;;213.90;;
13999;SDS011;7075;53.574;10.054;2022-12-07T03:17:33;225.48;;;214.65;;
13999;SDS011;7075;53.574;10.054;2022-12-07T03:20:04;237.60;;;226.40;;
13999;SDS011;7075;53.574;10.054;2022-12-07T03:22:33;209.55;;;199.63;;
13999;SDS011;7075;53.574;10.054;2022-12-07T03:25:02;203.50;;;193.53;;
13999;SDS011;7075;53.574;10.054;2022-12-07T03:27:37;217.48;;;207.00;;
13999;SDS011;7075;53.574;10.054;2022-12-07T03:30:06;208.93;;;198.90;;
13999;SDS011;7075;53.574;10.054;2022-12-07T03:32:40;189.88;;;180.63;;
13999;SDS011;7075;53.574;10.054;2022-12-07T03:38:22;191.07;;;181.88;;
13999;SDS011;7075;53.574;10.054;2022-12-07T03:41:00;197.47;;;187.87;;
13999;SDS011;7075;53.574;10.054;2022-12-07T03:43:39;193.77;;;184.52;;
13999;SDS011;7075;53.574;10.054;2022-12-07T03:48:40;180.95;;;172.02;;
13999;SDS011;7075;53.574;10.054;2022-12-07T03:51:26;191.32;;;182.07;;
13999;SDS011;7075;53.574;10.054;2022-12-07T03:54:09;186.52;;;177.65;;
13999;SDS011;7075;53.574;10.054;2022-12-07T03:56:40;183.43;;;174.70;;
13999;SDS011;7075;53.574;10.054;2022-12-07T03:59:08;183.60;;;174.55;;
13999;SDS011;7075;53.574;10.054;2022-12-07T04:01:35;189.82;;;180.95;;
13999;SDS011;7075;53.574;10.054;2022-12-07T04:04:01;186.60;;;177.60;;
13999;SDS011;7075;53.574;10.054;2022-12-07T04:06:27;178.77;;;170.23;;
13999;SDS011;7075;53.574;10.054;2022-12-07T04:08:52;182.07;;;173.40;;
13999;SDS011;7075;53.574;10.054;2022-12-07T04:11:18;179.13;;;170.52;;
13999;SDS011;7075;53.574;10.054;2022-12-07T04:13:44;179.73;;;171.23;;
13999;SDS011;7075;53.574;10.054;2022-12-07T04:16:28;176.73;;;168.20;;
13999;SDS011;7075;53.574;10.054;2022-12-07T04:18:53;180.88;;;172.30;;
13999;SDS011;7075;53.574;10.054;2022-12-07T04:21:19;174.43;;;166.13;;
13999;SDS011;7075;53.574;10.054;2022-12-07T04:23:45;173.80;;;165.40;;
13999;SDS011;7075;53.574;10.054;2022-12-07T04:26:10;180.33;;;171.63;;
13999;SDS011;7075;53.574;10.054;2022-12-07T04:28:36;188.53;;;179.53;;
13999;SDS011;7075;53.574;10.054;2022-12-07T04:31:02;177.93;;;169.43;;
13999;SDS011;7075;53.574;10.054;2022-12-07T04:33:27;170.98;;;162.80;;
13999;SDS011;7075;53.574;10.054;2022-12-07T04:35:53;176.83;;;168.30;;
13999;SDS011;7075;53.574;10.054;2022-12-07T04:38:19;177.83;;;169.23;;
13999;SDS011;7075;53.574;10.054;2022-12-07T04:40:44;167.43;;;159.40;;
13999;SDS011;7075;53.574;10.054;2022-12-07T04:43:10;166.63;;;158.68;;
13999;SDS011;7075;53.574;10.054;2022-12-07T04:45:35;168.80;;;160.63;;
13999;SDS011;7075;53.574;10.054;2022-12-07T04:48:01;173.33;;;165.00;;
13999;SDS011;7075;53.574;10.054;2022-12-07T04:50:27;170.17;;;161.90;;
13999;SDS011;7075;53.574;10.054;2022-12-07T04:52:52;183.43;;;174.43;;
13999;SDS011;7075;53.574;10.054;2022-12-07T04:55:18;158.93;;;151.23;;
13999;SDS011;7075;53.574;10.054;2022-12-07T04:57:44;173.13;;;164.73;;
13999;SDS011;7075;53.574;10.054;2022-12-07T05:00:09;161.80;;;153.93;;
13999;SDS011;7075;53.574;10.054;2022-12-07T05:02:35;156.15;;;148.65;;
13999;SDS011;7075;53.574;10.054;2022-12-07T05:05:01;175.52;;;167.13;;
13999;SDS011;7075;53.574;10.054;2022-12-07T05:07:27;166.30;;;158.15;;
13999;SDS011;7075;53.574;10.054;2022-12-07T05:09:52;164.37;;;156.47;;
13999;SDS011;7075;53.574;10.054;2022-12-07T05:12:18;163.37;;;155.57;;
13999;SDS011;7075;53.574;10.054;2022-12-07T05:14:44;164.67;;;156.67;;
13999;SDS011;7075;53.574;10.054;2022-12-07T05:17:09;154.73;;;147.33;;
13999;SDS011;7075;53.574;10.054;2022-12-07T05:19:36;160.60;;;152.82;;
13999;SDS011;7075;53.574;10.054;2022-12-07T05:22:02;143.48;;;136.52;;
13999;SDS011;7075;53.574;10.054;2022-12-07T05:24:28;154.95;;;147.38;;
13999;SDS011;7075;53.574;10.054;2022-12-07T05:26:53;149.15;;;141.77;;
13999;SDS011;7075;53.574;10.054;2022-12-07T05:29:19;153.95;;;146.43;;
13999;SDS011;7075;53.574;10.054;2022-12-07T05:31:44;147.57;;;140.47;;
13999;SDS011;7075;53.574;10.054;2022-12-07T05:34:11;147.40;;;140.30;;
13999;SDS011;7075;53.574;10.054;2022-12-07T05:36:37;156.90;;;149.40;;
13999;SDS011;7075;53.574;10.054;2022-12-07T05:39:02;153.60;;;146.30;;
13999;SDS011;7075;53.574;10.054;2022-12-07T05:41:28;150.23;;;142.90;;
13999;SDS011;7075;53.574;10.054;2022-12-07T05:44:13;155.00;;;147.47;;
13999;SDS011;7075;53.574;10.054;2022-12-07T05:46:38;143.60;;;136.60;;
13999;SDS011;7075;53.574;10.054;2022-12-07T05:49:04;130.40;;;124.00;;
13999;SDS011;7075;53.574;10.054;2022-12-07T05:51:30;140.37;;;133.43;;
13999;SDS011;7075;53.574;10.054;2022-12-07T05:53:55;155.10;;;147.57;;
13999;SDS011;7075;53.574;10.054;2022-12-07T05:56:21;136.32;;;129.65;;
13999;SDS011;7075;53.574;10.054;2022-12-07T05:58:47;144.80;;;137.77;;
13999;SDS011;7075;53.574;10.054;2022-12-07T06:01:31;140.10;;;133.07;;
13999;SDS011;7075;53.574;10.054;2022-12-07T06:03:57;144.77;;;137.75;;
13999;SDS011;7075;53.574;10.054;2022-12-07T06:06:23;130.87;;;124.30;;
13999;SDS011;7075;53.574;10.054;2022-12-07T06:08:48;129.60;;;122.93;;
13999;SDS011;7075;53.574;10.054;2022-12-07T06:11:14;138.17;;;131.37;;
13999;SDS011;7075;53.574;10.054;2022-12-07T06:13:58;123.22;;;117.13;;
13999;SDS011;7075;53.574;10.054;2022-12-07T06:16:24;116.73;;;110.80;;
13999;SDS011;7075;53.574;10.054;2022-12-07T06:18:49;115.40;;;109.77;;
13999;SDS011;7075;53.574;10.054;2022-12-07T06:21:15;112.23;;;106.57;;
13999;SDS011;7075;53.574;10.054;2022-12-07T06:23:41;104.63;;;99.38;;
13999;SDS011;7075;53.574;10.054;2022-12-07T06:26:06;119.57;;;113.70;;
13999;SDS011;7075;53.574;10.054;2022-12-07T06:28:32;112.53;;;107.10;;
13999;SDS011;7075;53.574;10.054;2022-12-07T06:30:58;96.83;;;92.17;;
13999;SDS011;7075;53.574;10.054;2022-12-07T06:33:24;101.40;;;96.35;;
13999;SDS011;7075;53.574;10.054;2022-12-07T06:35:51;109.75;;;104.30;;
13999;SDS011;7075;53.574;10.054;2022-12-07T06:38:17;103.10;;;97.97;;
13999;SDS011;7075;53.574;10.054;2022-12-07T06:40:42;114.90;;;109.30;;
13999;SDS011;7075;53.574;10.054;2022-12-07T06:43:08;114.88;;;109.22;;
13999;SDS011;7075;53.574;10.054;2022-12-07T06:45:33;113.57;;;108.07;;
13999;SDS011;7075;53.574;10.054;2022-12-07T06:47:59;133.33;;;126.73;;
13999;SDS011;7075;53.574;10.054;2022-12-07T06:50:25;143.77;;;136.80;;
13999;SDS011;7075;53.574;10.054;2022-12-07T06:52:51;160.13;;;152.40;;
13999;SDS011;7075;53.574;10.054;2022-12-07T06:55:17;172.07;;;163.70;;
13999;SDS011;7075;53.574;10.054;2022-12-07T06:57:42;158.07;;;150.30;;
13999;SDS011;7075;53.574;10.054;2022-12-07T07:00:08;149.67;;;142.50;;
13999;SDS011;7075;53.574;10.054;2022-12-07T07:02:34;154.13;;;146.52;;
13999;SDS011;7075;53.574;10.054;2022-12-07T07:05:00;175.37;;;166.87;;
13999;SDS011;7075;53.574;10.054;2022-12-07T07:07:26;170.60;;;162.23;;
13999;SDS011;7075;53.574;10.054;2022-12-07T07:09:51;168.30;;;160.10;;
13999;SDS011;7075;53.574;10.054;2022-12-07T07:12:17;176.80;;;168.13;;
13999;SDS011;7075;53.574;10.054;2022-12-07T07:14:43;181.00;;;172.20;;
13999;SDS011;7075;53.574;10.054;2022-12-07T07:17:08;175.68;;;167.25;;
13999;SDS011;7075;53.574;10.054;2022-12-07T07:19:34;185.20;;;176.23;;
13999;SDS011;7075;53.574;10.054;2022-12-07T07:22:00;187.55;;;178.70;;
13999;SDS011;7075;53.574;10.054;2022-12-07T07:24:25;175.83;;;167.23;;
13999;SDS011;7075;53.574;10.054;2022-12-07T07:26:51;173.97;;;165.60;;
13999;SDS011;7075;53.574;10.054;2022-12-07T07:29:17;187.98;;;178.82;;
13999;SDS011;7075;53.574;10.054;2022-12-07T07:31:42;179.00;;;170.40;;
13999;SDS011;7075;53.574;10.054;2022-12-07T07:34:08;193.30;;;184.00;;
13999;SDS011;7075;53.574;10.054;2022-12-07T07:36:34;186.27;;;177.27;;
13999;SDS011;7075;53.574;10.054;2022-12-07T07:38:59;197.88;;;188.32;;
13999;SDS011;7075;53.574;10.054;2022-12-07T07:41:25;182.10;;;173.43;;
13999;SDS011;7075;53.574;10.054;2022-12-07T07:43:50;190.60;;;181.00;;
13999;SDS011;7075;53.574;10.054;2022-12-07T07:46:16;195.77;;;185.40;;
13999;SDS011;7075;53.574;10.054;2022-12-07T07:48:42;188.07;;;178.80;;
13999;SDS011;7075;53.574;10.054;2022-12-07T07:51:08;179.40;;;170.10;;
13999;SDS011;7075;53.574;10.054;2022-12-07T07:53:34;173.02;;;164.43;;
13999;SDS011;7075;53.574;10.054;2022-12-07T07:55:59;173.55;;;165.18;;
13999;SDS011;7075;53.574;10.054;2022-12-07T07:58:25;183.52;;;174.63;;
13999;SDS011;7075;53.574;10.054;2022-12-07T08:00:51;178.00;;;169.07;;
13999;SDS011;7075;53.574;10.054;2022-12-07T08:03:17;186.40;;;177.23;;
13999;SDS011;7075;53.574;10.054;2022-12-07T08:05:42;176.95;;;168.55;;
13999;SDS011;7075;53.574;10.054;2022-12-07T08:08:08;184.30;;;175.30;;
13999;SDS011;7075;53.574;10.054;2022-12-07T08:10:33;172.33;;;163.73;;
13999;SDS011;7075;53.574;10.054;2022-12-07T08:13:00;165.63;;;157.57;;
13999;SDS011;7075;53.574;10.054;2022-12-07T08:15:42;179.57;;;170.95;;
13999;SDS011;7075;53.574;10.054;2022-12-07T08:18:09;166.10;;;157.88;;
13999;SDS011;7075;53.574;10.054;2022-12-07T08:20:36;175.48;;;166.93;;
13999;SDS011;7075;53.574;10.054;2022-12-07T08:23:03;179.32;;;170.43;;
13999;SDS011;7075;53.574;10.054;2022-12-07T08:25:29;167.52;;;159.48;;
13999;SDS011;7075;53.574;10.054;2022-12-07T08:27:56;180.48;;;171.75;;
13999;SDS011;7075;53.574;10.054;2022-12-07T08:30:22;188.32;;;179.02;;
13999;SDS011;7075;53.574;10.054;2022-12-07T08:32:47;181.43;;;172.55;;
13999;SDS011;7075;53.574;10.054;2022-12-07T08:35:13;177.45;;;168.75;;
13999;SDS011;7075;53.574;10.054;2022-12-07T08:37:39;186.00;;;176.97;;
13999;SDS011;7075;53.574;10.054;2022-12-07T08:40:06;179.37;;;170.63;;
13999;SDS011;7075;53.574;10.054;2022-12-07T08:42:33;173.38;;;164.68;;
13999;SDS011;7075;53.574;10.054;2022-12-07T08:45:09;180.70;;;171.23;;
13999;SDS011;7075;53.574;10.054;2022-12-07T08:47:37;174.07;;;165.38;;
13999;SDS011;7075;53.574;10.054;2022-12-07T08:50:05;174.77;;;166.27;;
13999;SDS011;7075;53.574;10.054;2022-12-07T08:52:33;169.57;;;161.27;;
13999;SDS011;7075;53.574;10.054;2022-12-07T08:55:00;187.68;;;178.52;;
13999;SDS011;7075;53.574;10.054;2022-12-07T08:57:28;187.02;;;177.73;;
13999;SDS011;7075;53.574;10.054;2022-12-07T08:59:54;170.52;;;162.00;;
13999;SDS011;7075;53.574;10.054;2022-12-07T09:02:20;174.68;;;166.15;;
13999;SDS011;7075;53.574;10.054;2022-12-07T09:04:46;182.95;;;173.98;;
13999;SDS011;7075;53.574;10.054;2022-12-07T09:07:11;188.17;;;178.87;;
13999;SDS011;7075;53.574;10.054;2022-12-07T09:09:37;173.83;;;165.33;;
13999;SDS011;7075;53.574;10.054;2022-12-07T09:12:03;184.83;;;175.77;;
13999;SDS011;7075;53.574;10.054;2022-12-07T09:14:28;178.77;;;169.97;;
13999;SDS011;7075;53.574;10.054;2022-12-07T09:16:54;181.40;;;172.50;;
13999;SDS011;7075;53.574;10.054;2022-12-07T09:19:20;175.60;;;166.93;;
13999;SDS011;7075;53.574;10.054;2022-12-07T09:21:46;201.23;;;191.27;;
13999;SDS011;7075;53.574;10.054;2022-12-07T09:24:12;196.00;;;186.57;;
13999;SDS011;7075;53.574;10.054;2022-12-07T09:26:38;186.32;;;177.00;;
13999;SDS011;7075;53.574;10.054;2022-12-07T09:29:05;188.63;;;179.43;;
13999;SDS011;7075;53.574;10.054;2022-12-07T09:31:31;192.63;;;183.02;;
13999;SDS011;7075;53.574;10.054;2022-12-07T09:33:57;190.48;;;181.10;;
13999;SDS011;7075;53.574;10.054;2022-12-07T09:36:24;191.97;;;182.57;;
13999;SDS011;7075;53.574;10.054;2022-12-07T09:38:50;193.63;;;184.18;;
13999;SDS011;7075;53.574;10.054;2022-12-07T09:41:17;196.83;;;187.10;;
13999;SDS011;7075;53.574;10.054;2022-12-07T09:43:43;201.82;;;191.75;;
13999;SDS011;7075;53.574;10.054;2022-12-07T09:46:13;199.70;;;189.70;;
13999;SDS011;7075;53.574;10.054;2022-12-07T09:48:42;195.38;;;185.35;;
13999;SDS011;7075;53.574;10.054;2022-12-07T09:51:30;192.98;;;183.50;;
13999;SDS011;7075;53.574;10.054;2022-12-07T09:53:56;199.52;;;189.80;;
13999;SDS011;7075;53.574;10.054;2022-12-07T09:56:23;188.75;;;179.50;;
13999;SDS011;7075;53.574;10.054;2022-12-07T09:58:50;192.85;;;183.07;;
13999;SDS011;7075;53.574;10.054;2022-12-07T10:01:22;175.90;;;167.30;;
13999;SDS011;7075;53.574;10.054;2022-12-07T10:03:49;176.30;;;167.43;;
13999;SDS011;7075;53.574;10.054;2022-12-07T10:06:20;185.88;;;176.55;;
13999;SDS011;7075;53.574;10.054;2022-12-07T10:08:46;178.10;;;169.25;;
13999;SDS011;7075;53.574;10.054;2022-12-07T10:11:12;167.98;;;159.35;;
13999;SDS011;7075;53.574;10.054;2022-12-07T10:16:26;171.30;;;162.73;;
13999;SDS011;7075;53.574;10.054;2022-12-07T10:18:57;183.65;;;174.60;;
13999;SDS011;7075;53.574;10.054;2022-12-07T10:22:02;197.07;;;187.05;;
13999;SDS011;7075;53.574;10.054;2022-12-07T10:24:36;135.55;;;128.27;;
13999;SDS011;7075;53.574;10.054;2022-12-07T10:27:04;118.47;;;112.32;;
13999;SDS011;7075;53.574;10.054;2022-12-07T10:29:53;127.17;;;120.67;;
13999;SDS011;7075;53.574;10.054;2022-12-07T10:34:44;112.50;;;106.70;;
13999;SDS011;7075;53.574;10.054;2022-12-07T10:39:55;112.57;;;106.45;;
13999;SDS011;7075;53.574;10.054;2022-12-07T10:42:22;103.32;;;97.93;;
13999;SDS011;7075;53.574;10.054;2022-12-07T10:50:41;102.50;;;97.05;;
13999;SDS011;7075;53.574;10.054;2022-12-07T10:56:06;98.68;;;93.60;;
13999;SDS011;7075;53.574;10.054;2022-12-07T10:58:58;92.05;;;87.18;;
13999;SDS011;7075;53.574;10.054;2022-12-07T11:01:43;83.43;;;78.93;;
13999;SDS011;7075;53.574;10.054;2022-12-07T11:04:33;79.60;;;75.22;;
13999;SDS011;7075;53.574;10.054;2022-12-07T11:07:14;83.80;;;79.30;;
13999;SDS011;7075;53.574;10.054;2022-12-07T11:10:18;78.30;;;74.22;;
13999;SDS011;7075;53.574;10.054;2022-12-07T11:15:29;70.15;;;66.45;;
13999;SDS011;7075;53.574;10.054;2022-12-07T11:20:44;72.30;;;68.30;;
13999;SDS011;7075;53.574;10.054;2022-12-07T11:23:33;67.40;;;63.60;;
13999;SDS011;7075;53.574;10.054;2022-12-07T11:31:38;67.38;;;63.67;;
13999;SDS011;7075;53.574;10.054;2022-12-07T11:37:02;73.68;;;69.50;;
13999;SDS011;7075;53.574;10.054;2022-12-07T11:39:39;75.60;;;71.65;;
13999;SDS011;7075;53.574;10.054;2022-12-07T11:42:25;70.55;;;66.57;;
13999;SDS011;7075;53.574;10.054;2022-12-07T11:44:55;82.73;;;78.37;;
13999;SDS011;7075;53.574;10.054;2022-12-07T11:47:38;75.03;;;70.90;;
13999;SDS011;7075;53.574;10.054;2022-12-07T11:50:23;73.45;;;69.55;;
13999;SDS011;7075;53.574;10.054;2022-12-07T11:53:02;81.03;;;76.68;;
13999;SDS011;7075;53.574;10.054;2022-12-07T11:55:43;85.50;;;81.15;;
13999;SDS011;7075;53.574;10.054;2022-12-07T11:58:20;96.47;;;91.23;;
13999;SDS011;7075;53.574;10.054;2022-12-07T12:03:49;103.75;;;98.15;;
13999;SDS011;7075;53.574;10.054;2022-12-07T12:06:17;102.32;;;97.00;;
13999;SDS011;7075;53.574;10.054;2022-12-07T12:08:54;107.17;;;101.47;;
13999;SDS011;7075;53.574;10.054;2022-12-07T12:17:19;132.80;;;125.93;;
13999;SDS011;7075;53.574;10.054;2022-12-07T12:23:22;151.98;;;143.93;;
13999;SDS011;7075;53.574;10.054;2022-12-07T12:25:57;168.50;;;159.82;;
13999;SDS011;7075;53.574;10.054;2022-12-07T12:31:05;163.10;;;154.52;;
13999;SDS011;7075;53.574;10.054;2022-12-07T12:33:37;178.50;;;169.48;;
13999;SDS011;7075;53.574;10.054;2022-12-07T12:41:50;153.48;;;145.30;;
13999;SDS011;7075;53.574;10.054;2022-12-07T12:51:42;176.00;;;167.00;;
13999;SDS011;7075;53.574;10.054;2022-12-07T12:56:55;114.32;;;108.28;;
13999;SDS011;7075;53.574;10.054;2022-12-07T12:59:31;105.35;;;100.07;;
13999;SDS011;7075;53.574;10.054;2022-12-07T13:04:55;92.57;;;87.60;;
13999;SDS011;7075;53.574;10.054;2022-12-07T13:18:22;65.63;;;62.05;;
13999;SDS011;7075;53.574;10.054;2022-12-07T13:20:57;70.88;;;66.88;;
13999;SDS011;7075;53.574;10.054;2022-12-07T13:23:31;64.57;;;61.17;;
13999;SDS011;7075;53.574;10.054;2022-12-07T13:26:06;69.63;;;65.88;;
13999;SDS011;7075;53.574;10.054;2022-12-07T13:28:48;88.20;;;83.35;;
13999;SDS011;7075;53.574;10.054;2022-12-07T13:37:00;51.85;;;49.15;;
13999;SDS011;7075;53.574;10.054;2022-12-07T13:39:45;51.22;;;48.47;;
13999;SDS011;7075;53.574;10.054;2022-12-07T13:42:26;58.67;;;55.57;;
13999;SDS011;7075;53.574;10.054;2022-12-07T13:44:55;61.70;;;58.28;;
13999;SDS011;7075;53.574;10.054;2022-12-07T13:52:59;77.38;;;73.28;;
13999;SDS011;7075;53.574;10.054;2022-12-07T13:55:26;75.88;;;71.82;;
13999;SDS011;7075;53.574;10.054;2022-12-07T13:57:53;67.85;;;64.15;;
13999;SDS011;7075;53.574;10.054;2022-12-07T14:00:24;64.03;;;60.72;;
13999;SDS011;7075;53.574;10.054;2022-12-07T14:02:56;65.15;;;61.10;;
13999;SDS011;7075;53.574;10.054;2022-12-07T14:05:37;59.28;;;55.97;;
13999;SDS011;7075;53.574;10.054;2022-12-07T14:08:05;68.82;;;65.10;;
13999;SDS011;7075;53.574;10.054;2022-12-07T14:10:32;70.38;;;66.63;;
13999;SDS011;7075;53.574;10.054;2022-12-07T14:12:59;69.40;;;65.63;;
13999;SDS011;7075;53.574;10.054;2022-12-07T14:15:27;66.43;;;62.72;;
13999;SDS011;7075;53.574;10.054;2022-12-07T14:17:58;66.22;;;62.58;;
13999;SDS011;7075;53.574;10.054;2022-12-07T14:20:29;65.90;;;62.40;;
13999;SDS011;7075;53.574;10.054;2022-12-07T14:22:56;60.03;;;56.77;;
13999;SDS011;7075;53.574;10.054;2022-12-07T14:25:25;70.87;;;67.17;;
13999;SDS011;7075;53.574;10.054;2022-12-07T14:27:56;62.13;;;58.70;;
13999;SDS011;7075;53.574;10.054;2022-12-07T14:30:26;56.70;;;53.80;;
13999;SDS011;7075;53.574;10.054;2022-12-07T14:32:57;59.78;;;56.47;;
13999;SDS011;7075;53.574;10.054;2022-12-07T14:35:25;59.33;;;56.33;;
13999;SDS011;7075;53.574;10.054;2022-12-07T14:37:51;54.13;;;51.22;;
13999;SDS011;7075;53.574;10.054;2022-12-07T14:40:18;58.03;;;55.05;;
13999;SDS011;7075;53.574;10.054;2022-12-07T14:42:50;62.63;;;59.25;;
13999;SDS011;7075;53.574;10.054;2022-12-07T14:45:19;58.13;;;55.23;;
13999;SDS011;7075;53.574;10.054;2022-12-07T14:47:47;59.58;;;56.38;;
13999;SDS011;7075;53.574;10.054;2022-12-07T14:50:14;59.77;;;56.67;;
13999;SDS011;7075;53.574;10.054;2022-12-07T14:52:45;71.10;;;67.45;;
13999;SDS011;7075;53.574;10.054;2022-12-07T14:55:22;67.97;;;64.47;;
13999;SDS011;7075;53.574;10.054;2022-12-07T14:57:49;71.13;;;67.43;;
13999;SDS011;7075;53.574;10.054;2022-12-07T15:00:16;70.63;;;66.87;;
13999;SDS011;7075;53.574;10.054;2022-12-07T15:02:42;72.57;;;68.97;;
13999;SDS011;7075;53.574;10.054;2022-12-07T15:05:09;73.85;;;69.97;;
13999;SDS011;7075;53.574;10.054;2022-12-07T15:07:35;75.38;;;71.57;;
13999;SDS011;7075;53.574;10.054;2022-12-07T15:10:00;77.75;;;73.53;;
13999;SDS011;7075;53.574;10.054;2022-12-07T15:12:26;77.38;;;73.57;;
13999;SDS011;7075;53.574;10.054;2022-12-07T15:14:52;77.72;;;73.57;;
13999;SDS011;7075;53.574;10.054;2022-12-07T15:17:17;70.20;;;66.67;;
13999;SDS011;7075;53.574;10.054;2022-12-07T15:19:43;73.57;;;69.93;;
13999;SDS011;7075;53.574;10.054;2022-12-07T15:22:08;74.27;;;70.33;;
13999;SDS011;7075;53.574;10.054;2022-12-07T15:24:36;77.15;;;73.15;;
13999;SDS011;7075;53.574;10.054;2022-12-07T15:27:02;72.28;;;68.68;;
13999;SDS011;7075;53.574;10.054;2022-12-07T15:29:27;65.63;;;62.13;;
13999;SDS011;7075;53.574;10.054;2022-12-07T15:31:53;68.27;;;64.60;;
13999;SDS011;7075;53.574;10.054;2022-12-07T15:34:19;66.57;;;63.13;;
13999;SDS011;7075;53.574;10.054;2022-12-07T15:36:44;66.53;;;63.03;;
13999;SDS011;7075;53.574;10.054;2022-12-07T15:39:10;66.38;;;62.97;;
13999;SDS011;7075;53.574;10.054;2022-12-07T15:41:36;67.07;;;63.55;;
13999;SDS011;7075;53.574;10.054;2022-12-07T15:44:02;71.30;;;67.60;;
13999;SDS011;7075;53.574;10.054;2022-12-07T15:46:46;61.20;;;58.00;;
13999;SDS011;7075;53.574;10.054;2022-12-07T15:49:14;66.00;;;62.53;;
13999;SDS011;7075;53.574;10.054;2022-12-07T15:51:42;65.60;;;62.17;;
13999;SDS011;7075;53.574;10.054;2022-12-07T15:54:16;63.80;;;60.65;;
13999;SDS011;7075;53.574;10.054;2022-12-07T15:56:45;66.65;;;63.25;;
13999;SDS011;7075;53.574;10.054;2022-12-07T15:59:11;63.92;;;60.72;;
13999;SDS011;7075;53.574;10.054;2022-12-07T16:01:37;65.75;;;62.28;;
13999;SDS011;7075;53.574;10.054;2022-12-07T16:04:03;62.80;;;59.60;;
13999;SDS011;7075;53.574;10.054;2022-12-07T16:06:29;64.90;;;61.65;;
13999;SDS011;7075;53.574;10.054;2022-12-07T16:08:55;64.88;;;61.38;;
13999;SDS011;7075;53.574;10.054;2022-12-07T16:11:20;65.80;;;62.42;;